createdAt,value
2022-12-28T00:01:49.098Z,66.44
2022-12-28T00:04:16.170Z,66.94
2022-12-28T00:06:43.237Z,66.83
2022-12-28T00:09:12.944Z,66.89
2022-12-28T00:11:43.763Z,66.51
2022-12-28T00:14:10.763Z,67.47
2022-12-28T00:16:40.242Z,67.70
2022-12-28T00:19:17.064Z,66.43
2022-12-28T00:21:45.827Z,66.60
2022-12-28T00:24:20.105Z,67.34
2022-12-28T00:26:47.126Z,67.22
2022-12-28T00:29:17.135Z,67.70
2022-12-28T00:31:47.842Z,68.01
2022-12-28T00:34:15.212Z,67.25
2022-12-28T00:37:08.701Z,67.43
2022-12-28T00:39:29.820Z,67.19
2022-12-28T00:41:56.748Z,67.15
2022-12-28T00:44:23.657Z,67.39
2022-12-28T00:46:50.901Z,67.24
2022-12-28T00:49:18.573Z,68.06
2022-12-28T00:51:45.507Z,67.31
2022-12-28T00:54:12.499Z,67.41
2022-12-28T00:56:43.109Z,66.99
2022-12-28T00:59:10.619Z,67.02
2022-12-28T01:01:37.752Z,66.22
2022-12-28T01:04:05.098Z,67.23
2022-12-28T01:06:32.031Z,67.36
2022-12-28T01:08:59.002Z,66.83
2022-12-28T01:11:29.968Z,65.86
2022-12-28T01:14:00.087Z,65.95
2022-12-28T01:16:32.947Z,66.40
2022-12-28T01:19:02.179Z,66.61
2022-12-28T01:21:32.561Z,66.25
2022-12-28T01:24:01.815Z,67.10
2022-12-28T01:26:29.468Z,67.07
2022-12-28T01:28:57.961Z,66.30
2022-12-28T01:31:24.939Z,66.44
2022-12-28T01:33:52.232Z,66.53
2022-12-28T01:36:31.559Z,66.88
2022-12-28T01:39:01.503Z,67.05
2022-12-28T01:41:30.184Z,66.70
2022-12-28T01:43:57.077Z,67.12
2022-12-28T01:46:31.346Z,67.06
2022-12-28T01:49:26.524Z,67.33
2022-12-28T01:52:01.961Z,67.52
2022-12-28T01:54:32.437Z,67.63
2022-12-28T01:56:59.755Z,67.75
2022-12-28T01:59:32.038Z,67.67
2022-12-28T02:01:59.482Z,67.81
2022-12-28T02:04:26.958Z,67.72
2022-12-28T02:06:55.190Z,67.96
2022-12-28T02:09:33.324Z,68.03
2022-12-28T02:12:01.380Z,68.45
2022-12-28T02:14:28.967Z,68.19
2022-12-28T02:16:56.230Z,67.77
2022-12-28T02:19:49.600Z,67.12
2022-12-28T02:22:31.452Z,67.37
2022-12-28T02:25:20.094Z,67.20
2022-12-28T02:28:30.815Z,67.16
2022-12-28T02:31:07.505Z,66.40
2022-12-28T02:33:44.573Z,65.99
2022-12-28T02:36:21.557Z,66.92
2022-12-28T02:38:54.683Z,66.48
2022-12-28T02:41:26.009Z,66.87
2022-12-28T02:43:54.511Z,66.52
2022-12-28T02:46:43.341Z,65.67
2022-12-28T02:49:47.262Z,65.52
2022-12-28T02:52:26.501Z,65.47
2022-12-28T02:55:43.936Z,65.74
2022-12-28T02:58:49.905Z,65.84
2022-12-28T03:01:41.513Z,66.27
2022-12-28T03:04:31.865Z,66.41
2022-12-28T03:08:08.855Z,66.55
2022-12-28T03:10:50.345Z,66.56
2022-12-28T03:13:42.879Z,66.68
2022-12-28T03:16:26.447Z,67.09
2022-12-28T03:19:22.580Z,66.75
2022-12-28T03:22:15.357Z,67.13
2022-12-28T03:25:04.370Z,67.70
2022-12-28T03:27:52.203Z,68.96
2022-12-28T03:30:41.685Z,68.26
2022-12-28T03:33:11.853Z,68.17
2022-12-28T03:35:54.812Z,68.36
2022-12-28T03:38:47.644Z,68.45
2022-12-28T03:41:51.420Z,68.87
2022-12-28T03:44:34.155Z,69.18
2022-12-28T03:47:13.956Z,68.97
2022-12-28T03:49:41.592Z,68.78
2022-12-28T03:52:10.288Z,69.05
2022-12-28T03:54:37.765Z,69.50
2022-12-28T03:57:04.721Z,69.29
2022-12-28T03:59:36.925Z,68.96
2022-12-28T04:02:05.534Z,69.34
2022-12-28T04:04:33.885Z,69.71
2022-12-28T04:07:01.221Z,69.13
2022-12-28T04:09:30.129Z,69.41
2022-12-28T04:11:57.110Z,69.39
2022-12-28T04:14:33.570Z,69.78
2022-12-28T04:17:00.624Z,69.81
2022-12-28T04:19:27.878Z,69.76
2022-12-28T04:21:54.821Z,70.12
2022-12-28T04:24:21.984Z,70.22
2022-12-28T04:26:48.936Z,70.42
2022-12-28T04:29:15.913Z,69.75
2022-12-28T04:31:50.956Z,69.03
2022-12-28T04:34:20.325Z,68.61
2022-12-28T04:36:54.808Z,68.68
2022-12-28T04:39:23.090Z,69.25
2022-12-28T04:41:50.812Z,68.73
2022-12-28T04:44:17.828Z,69.06
2022-12-28T04:46:44.795Z,68.68
2022-12-28T04:49:11.740Z,69.35
2022-12-28T04:51:38.753Z,69.55
2022-12-28T04:54:05.863Z,70.13
2022-12-28T04:56:32.872Z,69.71
2022-12-28T04:59:01.035Z,69.61
2022-12-28T05:01:28.363Z,68.46
2022-12-28T05:03:58.256Z,67.79
2022-12-28T05:06:28.079Z,67.58
2022-12-28T05:08:56.818Z,67.44
2022-12-28T05:11:28.509Z,67.17
2022-12-28T05:13:56.615Z,67.03
2022-12-28T05:16:26.124Z,67.41
2022-12-28T05:18:53.334Z,67.95
2022-12-28T05:21:22.873Z,67.78
2022-12-28T05:23:54.988Z,67.04
2022-12-28T05:26:24.760Z,67.55
2022-12-28T05:28:52.050Z,67.09
2022-12-28T05:31:22.457Z,67.59
2022-12-28T05:33:50.149Z,66.91
2022-12-28T05:36:19.928Z,67.05
2022-12-28T05:38:47.687Z,66.68
2022-12-28T05:41:17.740Z,66.84
2022-12-28T05:43:45.221Z,67.00
2022-12-28T05:46:16.636Z,67.18
2022-12-28T05:48:44.045Z,66.97
2022-12-28T05:51:14.599Z,67.32
2022-12-28T05:53:42.179Z,67.47
2022-12-28T05:56:14.551Z,65.76
2022-12-28T05:58:46.512Z,66.16
2022-12-28T06:01:16.336Z,66.63
2022-12-28T06:03:44.148Z,67.83
2022-12-28T06:06:16.535Z,67.83
2022-12-28T06:08:44.688Z,67.72
2022-12-28T06:11:14.712Z,68.46
2022-12-28T06:13:42.153Z,68.38
2022-12-28T06:16:15.153Z,68.16
2022-12-28T06:18:43.044Z,68.39
2022-12-28T06:21:14.425Z,68.62
2022-12-28T06:23:42.402Z,68.90
2022-12-28T06:26:12.406Z,69.52
2022-12-28T06:28:40.544Z,69.60
2022-12-28T06:31:09.081Z,69.77
2022-12-28T06:33:36.185Z,69.65
2022-12-28T06:36:03.973Z,69.52
2022-12-28T06:38:34.578Z,69.41
2022-12-28T06:41:14.799Z,69.36
2022-12-28T06:43:49.178Z,68.79
2022-12-28T06:46:18.246Z,68.37
2022-12-28T06:48:45.775Z,68.29
2022-12-28T06:51:21.194Z,68.27
2022-12-28T06:53:49.731Z,67.81
2022-12-28T06:56:19.904Z,68.08
2022-12-28T06:58:47.909Z,67.41
2022-12-28T07:01:20.303Z,67.88
2022-12-28T07:03:49.426Z,67.93
2022-12-28T07:06:18.226Z,68.37
2022-12-28T07:08:46.039Z,69.26
2022-12-28T07:11:15.841Z,69.03
2022-12-28T07:13:43.134Z,69.34
2022-12-28T07:16:19.577Z,68.52
2022-12-28T07:18:47.404Z,68.07
2022-12-28T07:21:21.478Z,68.19
2022-12-28T07:23:50.341Z,66.72
2022-12-28T07:26:22.536Z,66.94
2022-12-28T07:28:52.144Z,67.00
2022-12-28T07:31:21.692Z,66.38
2022-12-28T07:33:49.990Z,65.77
2022-12-28T07:36:19.112Z,66.38
2022-12-28T07:38:46.416Z,66.84
2022-12-28T07:41:21.718Z,67.19
2022-12-28T07:43:49.431Z,67.29
2022-12-28T07:46:17.857Z,67.08
2022-12-28T07:48:45.604Z,66.97
2022-12-28T07:51:19.716Z,66.60
2022-12-28T07:53:49.165Z,66.83
2022-12-28T07:56:17.315Z,66.68
2022-12-28T07:58:58.140Z,66.30
2022-12-28T08:01:27.885Z,66.52
2022-12-28T08:03:57.367Z,65.52
2022-12-28T08:06:25.405Z,66.63
2022-12-28T08:08:59.879Z,66.16
2022-12-28T08:11:30.031Z,65.27
2022-12-28T08:13:58.033Z,64.65
2022-12-28T08:16:27.029Z,65.02
2022-12-28T08:18:55.103Z,63.98
2022-12-28T08:21:23.652Z,63.47
2022-12-28T08:23:50.726Z,62.72
2022-12-28T08:26:23.880Z,62.75
2022-12-28T08:28:54.652Z,62.87
2022-12-28T08:31:27.832Z,63.21
2022-12-28T08:33:56.088Z,63.33
2022-12-28T08:36:23.565Z,63.01
2022-12-28T08:38:50.974Z,62.89
2022-12-28T08:41:21.172Z,62.05
2022-12-28T08:43:49.476Z,62.46
2022-12-28T08:46:22.195Z,62.96
2022-12-28T08:48:50.434Z,62.38
2022-12-28T08:51:21.608Z,60.71
2022-12-28T08:53:49.552Z,61.08
2022-12-28T08:56:18.842Z,60.26
2022-12-28T08:58:46.940Z,60.86
2022-12-28T09:01:21.087Z,62.12
2022-12-28T09:03:50.370Z,64.24
2022-12-28T09:06:23.745Z,64.57
2022-12-28T09:09:07.730Z,64.01
2022-12-28T09:11:36.061Z,64.75
2022-12-28T09:14:04.532Z,64.93
2022-12-28T09:16:31.843Z,64.34
2022-12-28T09:19:00.955Z,63.03
2022-12-28T09:21:30.656Z,62.21
2022-12-28T09:24:00.578Z,54.57
2022-12-28T09:26:31.872Z,53.44
2022-12-28T09:29:01.697Z,53.95
2022-12-28T09:31:31.205Z,55.90
2022-12-28T09:36:48.154Z,54.96
2022-12-28T09:39:17.858Z,55.11
2022-12-28T09:41:56.215Z,56.46
2022-12-28T09:45:18.003Z,57.08
2022-12-28T09:47:51.983Z,57.44
2022-12-28T09:50:19.032Z,57.50
2022-12-28T09:52:49.965Z,57.99
2022-12-28T09:55:19.508Z,58.35
2022-12-28T09:57:51.221Z,58.46
2022-12-28T10:00:24.379Z,58.61
2022-12-28T10:02:57.651Z,58.65
2022-12-28T10:05:25.238Z,58.51
2022-12-28T10:07:55.395Z,57.32
2022-12-28T10:10:23.799Z,55.32
2022-12-28T10:12:51.300Z,56.60
2022-12-28T10:15:18.570Z,55.57
2022-12-28T10:17:45.877Z,55.81
2022-12-28T10:20:22.086Z,57.17
2022-12-28T10:22:53.218Z,58.06
2022-12-28T10:25:23.060Z,58.47
2022-12-28T10:27:50.084Z,58.51
2022-12-28T10:30:20.506Z,58.99
2022-12-28T10:33:02.206Z,58.78
2022-12-28T10:35:39.459Z,58.79
2022-12-28T10:38:19.809Z,58.54
2022-12-28T10:41:14.508Z,58.57
2022-12-28T10:43:44.301Z,58.63
2022-12-28T10:46:23.632Z,58.93
2022-12-28T10:48:57.016Z,59.17
2022-12-28T10:51:26.562Z,59.09
2022-12-28T10:53:58.268Z,59.28
2022-12-28T10:56:30.458Z,59.36
2022-12-28T10:59:15.379Z,59.37
2022-12-28T11:01:43.193Z,59.54
2022-12-28T11:04:25.450Z,59.16
2022-12-28T11:07:01.297Z,58.96
2022-12-28T11:09:29.628Z,58.99
2022-12-28T11:12:16.249Z,58.50
2022-12-28T11:14:43.408Z,58.39
2022-12-28T11:17:20.150Z,58.50
2022-12-28T11:19:49.740Z,58.64
2022-12-28T11:22:22.698Z,58.58
2022-12-28T11:24:49.682Z,58.59
2022-12-28T11:27:19.777Z,59.41
2022-12-28T11:29:54.582Z,59.20
2022-12-28T11:32:23.388Z,59.42
2022-12-28T11:34:52.815Z,59.38
2022-12-28T11:37:19.797Z,59.21
2022-12-28T11:39:49.004Z,59.66
2022-12-28T11:42:39.492Z,59.63
2022-12-28T11:45:15.653Z,59.61
2022-12-28T11:47:42.884Z,59.66
2022-12-28T11:50:33.840Z,59.74
2022-12-28T11:53:02.738Z,59.90
2022-12-28T11:55:51.202Z,60.04
2022-12-28T11:59:02.005Z,60.15
2022-12-28T12:01:37.140Z,60.29
2022-12-28T12:04:04.148Z,60.69
2022-12-28T12:06:48.126Z,60.91
2022-12-28T12:09:21.188Z,61.15
2022-12-28T12:12:24.219Z,61.75
2022-12-28T12:14:53.874Z,61.57
2022-12-28T12:17:43.166Z,60.63
2022-12-28T12:20:51.830Z,60.96
2022-12-28T12:23:26.373Z,60.98
2022-12-28T12:25:56.378Z,61.84
2022-12-28T12:28:47.837Z,62.85
2022-12-28T12:31:30.737Z,62.75
2022-12-28T12:34:19.459Z,63.04
2022-12-28T12:37:37.493Z,62.92
2022-12-28T12:40:10.240Z,62.68
2022-12-28T12:43:14.134Z,62.39
2022-12-28T12:46:05.629Z,61.97
2022-12-28T12:48:57.002Z,61.90
2022-12-28T12:51:27.012Z,61.86
2022-12-28T12:54:27.981Z,61.36
2022-12-28T12:57:03.358Z,61.03
2022-12-28T12:59:51.748Z,61.15
2022-12-28T13:02:25.619Z,61.49
2022-12-28T13:04:52.842Z,61.36
2022-12-28T13:07:25.116Z,61.33
2022-12-28T13:09:57.289Z,61.22
2022-12-28T13:12:25.616Z,60.39
2022-12-28T13:15:03.758Z,60.31
2022-12-28T13:17:33.151Z,59.94
2022-12-28T13:20:11.167Z,59.85
2022-12-28T13:22:45.450Z,60.10
2022-12-28T13:25:30.318Z,60.47
2022-12-28T13:28:02.190Z,60.35
2022-12-28T13:30:30.811Z,60.46
2022-12-28T13:33:00.129Z,60.36
2022-12-28T13:35:30.750Z,60.24
2022-12-28T13:38:05.276Z,60.36
2022-12-28T13:40:33.690Z,60.43
2022-12-28T13:43:25.071Z,60.72
2022-12-28T13:46:01.356Z,60.59
2022-12-28T13:48:29.512Z,60.37
2022-12-28T13:50:56.521Z,60.68
2022-12-28T13:53:28.289Z,60.70
2022-12-28T13:55:59.353Z,60.74
2022-12-28T13:58:32.356Z,60.76
2022-12-28T14:01:02.219Z,60.96
2022-12-28T14:03:35.930Z,60.70
2022-12-28T14:06:07.374Z,60.52
2022-12-28T14:08:36.664Z,60.67
2022-12-28T14:11:05.607Z,60.65
2022-12-28T14:13:34.219Z,60.31
2022-12-28T14:16:02.898Z,60.17
2022-12-28T14:18:33.706Z,60.06
2022-12-28T14:21:01.968Z,60.31
2022-12-28T14:23:31.529Z,60.50
2022-12-28T14:26:00.689Z,60.41
2022-12-28T14:28:53.186Z,60.57
2022-12-28T14:31:22.729Z,60.56
2022-12-28T14:33:52.340Z,60.50
2022-12-28T14:36:22.531Z,60.37
2022-12-28T14:38:52.853Z,60.08
2022-12-28T14:41:25.744Z,59.99
2022-12-28T14:44:03.063Z,60.36
2022-12-28T14:46:36.283Z,60.28
2022-12-28T14:49:25.004Z,59.66
2022-12-28T14:51:52.078Z,59.48
2022-12-28T14:54:25.974Z,59.42
2022-12-28T14:57:00.815Z,59.19
2022-12-28T14:59:33.871Z,59.53
2022-12-28T15:02:01.122Z,59.71
2022-12-28T15:04:38.297Z,59.68
2022-12-28T15:07:06.928Z,59.96
2022-12-28T15:09:34.171Z,59.71
2022-12-28T15:12:20.796Z,59.76
2022-12-28T15:14:49.038Z,59.50
2022-12-28T15:17:16.849Z,60.16
2022-12-28T15:19:45.321Z,59.98
2022-12-28T15:22:13.163Z,59.77
2022-12-28T15:24:41.894Z,60.09
2022-12-28T15:27:08.925Z,60.16
2022-12-28T15:32:23.183Z,59.69
2022-12-28T15:34:50.141Z,60.31
2022-12-28T15:37:17.028Z,60.99
2022-12-28T15:39:43.963Z,60.50
2022-12-28T15:42:10.893Z,60.34
2022-12-28T15:44:37.917Z,60.21
2022-12-28T15:47:05.083Z,60.19
2022-12-28T15:49:32.336Z,60.02
2022-12-28T15:51:59.886Z,59.41
2022-12-28T15:54:26.858Z,59.00
2022-12-28T15:56:55.434Z,59.34
2022-12-28T15:59:22.540Z,59.39
2022-12-28T16:01:49.907Z,59.74
2022-12-28T16:04:17.031Z,60.09
2022-12-28T16:06:45.173Z,59.70
2022-12-28T16:09:14.109Z,59.53
2022-12-28T16:11:41.930Z,59.79
2022-12-28T16:14:14.432Z,60.36
2022-12-28T16:16:42.273Z,60.52
2022-12-28T16:19:13.110Z,60.99
2022-12-28T16:21:41.019Z,59.94
2022-12-28T16:24:08.283Z,59.63
2022-12-28T16:26:35.327Z,59.59
2022-12-28T16:29:03.257Z,60.14
2022-12-28T16:31:36.317Z,60.80
2022-12-28T16:34:17.896Z,61.49
2022-12-28T16:36:48.901Z,61.54
2022-12-28T16:39:18.069Z,61.08
2022-12-28T16:41:45.162Z,61.36
2022-12-28T16:44:20.880Z,61.03
2022-12-28T16:46:48.742Z,61.09
2022-12-28T16:49:15.911Z,61.91
2022-12-28T16:51:45.495Z,61.97
2022-12-28T16:54:15.888Z,62.22
2022-12-28T16:56:51.338Z,62.49
2022-12-28T16:59:20.941Z,63.16
2022-12-28T17:01:48.746Z,63.20
2022-12-28T17:04:15.987Z,63.43
2022-12-28T17:06:44.287Z,64.69
2022-12-28T17:09:11.123Z,65.56
2022-12-28T17:11:38.173Z,65.87
2022-12-28T17:14:08.097Z,66.43
2022-12-28T17:16:35.231Z,67.04
2022-12-28T17:19:02.685Z,67.00
2022-12-28T17:21:31.011Z,67.72
2022-12-28T17:23:58.578Z,67.49
2022-12-28T17:26:25.601Z,67.48
2022-12-28T17:28:53.360Z,67.40
2022-12-28T17:31:22.650Z,67.36
2022-12-28T17:33:53.857Z,67.37
2022-12-28T17:36:21.351Z,67.72
2022-12-28T17:38:48.269Z,68.55
2022-12-28T17:41:23.510Z,68.98
2022-12-28T17:43:58.741Z,68.90
2022-12-28T17:46:29.012Z,68.59
2022-12-28T17:48:58.098Z,69.07
2022-12-28T17:51:26.626Z,69.03
2022-12-28T17:53:55.382Z,68.10
2022-12-28T17:56:22.395Z,68.34
2022-12-28T17:58:53.501Z,68.28
2022-12-28T18:01:20.549Z,68.13
2022-12-28T18:03:47.840Z,68.01
2022-12-28T18:06:15.013Z,67.39
2022-12-28T18:08:42.198Z,67.10
2022-12-28T18:11:11.339Z,67.44
2022-12-28T18:13:39.191Z,66.94
2022-12-28T18:16:07.280Z,67.55
2022-12-28T18:18:34.678Z,66.69
2022-12-28T18:21:04.334Z,67.01
2022-12-28T18:23:31.495Z,67.17
2022-12-28T18:26:10.102Z,67.10
2022-12-28T18:28:37.198Z,66.74
2022-12-28T18:31:05.562Z,66.50
2022-12-28T18:33:34.509Z,66.39
2022-12-28T18:36:17.357Z,66.57
2022-12-28T18:38:47.442Z,67.21
2022-12-28T18:41:17.352Z,66.76
2022-12-28T18:43:44.882Z,66.63
2022-12-28T18:46:11.999Z,66.98
2022-12-28T18:48:40.817Z,66.74
2022-12-28T18:51:13.811Z,66.35
2022-12-28T18:53:41.732Z,66.88
2022-12-28T18:56:12.238Z,67.68
2022-12-28T18:58:40.651Z,67.73
2022-12-28T19:01:32.857Z,67.85
2022-12-28T19:04:10.079Z,67.95
2022-12-28T19:06:38.214Z,68.38
2022-12-28T19:09:06.315Z,68.40
2022-12-28T19:11:33.682Z,68.76
2022-12-28T19:14:03.019Z,68.49
2022-12-28T19:16:31.787Z,68.09
2022-12-28T19:19:00.082Z,67.75
2022-12-28T19:21:32.868Z,68.14
2022-12-28T19:24:12.154Z,68.51
2022-12-28T19:26:39.374Z,68.51
2022-12-28T19:29:07.124Z,69.12
2022-12-28T19:31:34.981Z,69.69
2022-12-28T19:34:01.967Z,70.22
2022-12-28T19:36:29.295Z,71.78
2022-12-28T19:38:57.266Z,70.19
2022-12-28T19:41:24.942Z,69.59
2022-12-28T19:43:52.102Z,69.28
2022-12-28T19:46:30.817Z,70.97
2022-12-28T19:49:02.967Z,70.97
2022-12-28T19:51:32.449Z,70.05
2022-12-28T19:54:00.675Z,69.62
2022-12-28T19:56:27.729Z,69.89
2022-12-28T19:59:01.196Z,69.44
2022-12-28T20:01:32.706Z,69.27
2022-12-28T20:04:00.135Z,68.84
2022-12-28T20:06:29.435Z,68.60
2022-12-28T20:08:59.419Z,68.96
2022-12-28T20:11:28.007Z,68.16
2022-12-28T20:14:01.543Z,68.35
2022-12-28T20:16:30.688Z,68.69
2022-12-28T20:18:57.940Z,68.41
2022-12-28T20:21:26.108Z,68.07
2022-12-28T20:23:54.568Z,67.73
2022-12-28T20:26:23.083Z,67.55
2022-12-28T20:28:51.019Z,68.08
2022-12-28T20:31:18.523Z,69.20
2022-12-28T20:33:46.176Z,69.17
2022-12-28T20:36:16.545Z,69.18
2022-12-28T20:38:43.821Z,69.00
2022-12-28T20:41:37.909Z,69.51
2022-12-28T20:44:11.520Z,69.72
2022-12-28T20:46:38.990Z,68.94
2022-12-28T20:49:06.318Z,69.24
2022-12-28T20:51:34.190Z,69.62
2022-12-28T20:54:01.780Z,69.89
2022-12-28T20:56:29.021Z,70.20
2022-12-28T20:58:56.480Z,70.23
2022-12-28T21:01:23.423Z,71.00
2022-12-28T21:03:50.620Z,71.29
2022-12-28T21:06:17.571Z,71.63
2022-12-28T21:08:44.630Z,70.68
2022-12-28T21:11:11.597Z,71.33
2022-12-28T21:13:43.903Z,70.50
2022-12-28T21:16:12.104Z,71.35
2022-12-28T21:18:39.192Z,71.20
2022-12-28T21:21:06.613Z,70.71
2022-12-28T21:23:33.575Z,72.39
2022-12-28T21:26:08.156Z,71.92
2022-12-28T21:28:35.038Z,71.16
2022-12-28T21:31:04.963Z,71.26
2022-12-28T21:33:33.100Z,71.50
2022-12-28T21:36:06.028Z,71.26
2022-12-28T21:38:36.274Z,71.45
2022-12-28T21:41:08.937Z,71.25
2022-12-28T21:43:35.961Z,71.87
2022-12-28T21:46:14.188Z,72.09
2022-12-28T21:48:41.971Z,72.40
2022-12-28T21:51:28.829Z,72.16
2022-12-28T21:53:55.849Z,71.99
2022-12-28T21:56:22.814Z,72.47
2022-12-28T21:58:53.153Z,72.56
2022-12-28T22:01:39.145Z,72.20
2022-12-28T22:04:25.182Z,72.17
2022-12-28T22:06:52.117Z,72.50
2022-12-28T22:09:37.582Z,73.00
2022-12-28T22:12:23.125Z,72.49
2022-12-28T22:14:50.092Z,72.82
2022-12-28T22:17:17.041Z,72.86
2022-12-28T22:19:44.035Z,73.26
2022-12-28T22:22:11.158Z,73.12
2022-12-28T22:24:38.140Z,72.92
2022-12-28T22:27:05.080Z,73.05
2022-12-28T22:29:32.105Z,72.96
2022-12-28T22:31:59.101Z,72.48
2022-12-28T22:34:26.198Z,72.61
2022-12-28T22:36:53.292Z,71.45
2022-12-28T22:39:20.386Z,71.50
2022-12-28T22:41:47.498Z,70.77
2022-12-28T22:44:14.442Z,70.24
2022-12-28T22:46:41.441Z,70.26
2022-12-28T22:49:11.280Z,70.42
2022-12-28T22:51:38.207Z,69.72
2022-12-28T22:54:05.217Z,70.20
2022-12-28T22:56:32.177Z,69.32
2022-12-28T22:59:04.251Z,69.57
2022-12-28T23:01:31.862Z,69.23
2022-12-28T23:03:58.819Z,69.96
2022-12-28T23:06:25.724Z,70.20
2022-12-28T23:08:52.922Z,69.92
2022-12-28T23:11:39.522Z,69.58
2022-12-28T23:14:25.069Z,69.36
2022-12-28T23:16:52.639Z,69.08
2022-12-28T23:19:38.584Z,68.95
2022-12-28T23:22:25.928Z,69.09
2022-12-28T23:25:11.498Z,68.73
2022-12-28T23:27:43.816Z,69.01
2022-12-28T23:30:22.440Z,68.63
2022-12-28T23:32:51.319Z,68.68
2022-12-28T23:35:19.448Z,68.78
2022-12-28T23:37:47.301Z,69.52
2022-12-28T23:40:16.326Z,69.27
2022-12-28T23:42:44.031Z,68.85
2022-12-28T23:45:15.314Z,68.58
2022-12-28T23:47:46.180Z,69.46
2022-12-28T23:50:14.738Z,69.13
2022-12-28T23:52:42.415Z,69.11
2022-12-28T23:55:10.639Z,69.45
2022-12-28T23:57:38.355Z,69.44
